Hovedside
METAR-TAF:

METAR-TAF

Lufthavner :

Nassau, Bahamas

breddegrad: 25-03N, lengdegrad: 077-28W, høyde over havet: 3 m

Gjeldene værobservasjon

Denne rapporten ble laget for 50 minutter siden, klokken 15:00 UTC
Vind 10 kt fra Nord-nordøst
Temperatur 24°C
Luftfuktighet 61%
Trykk 1019 hPa
Sikt 10 km eller mer
Spredte skyer i en høyde av 4000 ft
Brutte skyer i en høyde av 6000 ft

METAR: MYNN 201500Z 02010KT 9999 SCT040 BKN060 24/16 A3009

Tid: 10:50 (15:50 UTC)

Varsel

Denne rapporten ble laget for 4 timer og 50 minutter siden, klokken 11:00 UTC
Varsel gyldig fra 20. klokken 12 UTC til 21. klokken 12 UTC
Vind 7 kt fra Øst-nordøst
Sikt 10 km eller mer
Spredte skyer i en høyde av 1800 ft
regnbyger
Blir
fra 20. klokken 18 UTC til 20. klokken 20 UTC
Vind 10 kt fra Nordøst
Sikt 10 km eller mer
Spredte skyer i en høyde av 2500 ft

TAF: MYNN 201100Z 2012/2112 06007KT 9999 SHRA SCT018 BECMG 2018/2020 05010KT 9999 SCT025

Værobservasjoner og værvarsel for over 4000 flyplasser (METAR- og TAF-rapporter).

Tilgjengelige stasjoner er representert av de røde og gule prikkene på kartet.

Hold musepekeren over prikken for å se navnet på stasjonen.

Klikk så for å se værobservasjoner og -varsler.

For å forandre kartet kan du klikke på den grønne knappen med svart kryss for å zoome inn, på den grønne knappen med strek for å zoome ut, eller på de grønne pilene for å se tilstøtende kart.


METAR-TAF: